Time;durP1;ratioP1;P1;durP2;ratioP2;P2;SDS_P1;SDS_P2;PMS_P1;PMS_P2;Temp;Humidity;BMP_temperature;BMP_pressure;BME280_temperature;BME280_humidity;BME280_pressure;Samples;Min_cycle;Max_cycle;Signal;HPM_P1;HPM_P2
2023/03/30 00:02:23;;;;;;;1.63;1.23;;;;;;;5.97;51.56;63558.13;5033722;28;20173;-54
2023/03/30 00:04:49;;;;;;;2.77;1.50;;;;;;;5.94;51.28;63550.41;5033676;28;20714;-54
2023/03/30 00:07:15;;;;;;;2.97;1.57;;;;;;;5.96;51.42;63555.09;5033720;28;20209;-52
2023/03/30 00:09:41;;;;;;;1.43;1.00;;;;;;;5.96;51.35;63552.59;5033558;28;20244;-55
2023/03/30 00:12:07;;;;;;;1.80;1.10;;;;;;;5.92;51.57;63548.22;5033704;28;20200;-54
2023/03/30 00:14:36;;;;;;;1.87;1.00;;;;;;;5.84;52.07;63540.06;5033396;28;20220;-54
2023/03/30 00:17:06;;;;;;;1.57;0.93;;;;;;;5.98;51.04;63557.25;5033361;28;20205;-53
2023/03/30 00:19:32;;;;;;;2.93;1.37;;;;;;;5.96;51.44;63549.56;5033719;28;20280;-57
2023/03/30 00:21:57;;;;;;;4.83;1.37;;;;;;;6.01;51.45;63560.00;5033353;28;20671;-53
2023/03/30 00:24:23;;;;;;;1.20;1.10;;;;;;;5.98;51.48;63554.25;5033140;28;20241;-57
2023/03/30 00:26:48;;;;;;;1.17;1.07;;;;;;;5.93;51.94;63551.84;5033092;28;20216;-53
2023/03/30 00:29:14;;;;;;;1.43;1.10;;;;;;;5.94;51.92;63550.41;5033269;28;20631;-53
2023/03/30 00:31:39;;;;;;;1.50;1.10;;;;;;;5.91;51.99;63550.19;5033320;28;20259;-56
2023/03/30 00:34:05;;;;;;;3.23;1.20;;;;;;;5.93;52.13;63549.31;5032958;28;20328;-53
2023/03/30 00:36:36;;;;;;;2.50;1.10;;;;;;;5.91;52.19;63547.69;5015362;28;20197;-54
2023/03/30 00:39:05;;;;;;;1.37;1.07;;;;;;;5.91;52.53;63549.66;5033096;28;20289;-53
2023/03/30 00:41:32;;;;;;;2.23;1.23;;;;;;;5.86;53.06;63541.69;5015295;28;20220;-57
2023/03/30 00:44:01;;;;;;;2.60;1.17;;;;;;;5.79;53.34;63536.56;5033192;28;20680;-58
2023/03/30 00:46:29;;;;;;;2.67;1.20;;;;;;;5.81;53.84;63538.75;5032813;28;20266;-58
2023/03/30 00:48:58;;;;;;;5.17;1.40;;;;;;;5.69;55.29;63520.66;5032478;28;20212;-53
2023/03/30 00:51:26;;;;;;;1.73;1.30;;;;;;;5.72;55.87;63526.44;5032565;28;20698;-53
2023/03/30 00:53:55;;;;;;;2.53;1.20;;;;;;;5.60;56.89;63513.91;5032437;28;20201;-53
2023/03/30 00:56:26;;;;;;;4.07;1.30;;;;;;;5.65;57.42;63521.31;5032506;28;20172;-54
2023/03/30 00:58:53;;;;;;;1.70;1.60;;;;;;;5.61;57.68;63514.47;5032628;28;20210;-53
2023/03/30 01:01:24;;;;;;;2.00;1.53;;;;;;;5.64;57.59;63518.25;5031446;28;20221;-53
2023/03/30 01:03:51;;;;;;;2.37;1.07;;;;;;;5.61;58.03;63514.47;5032641;28;20212;-53
2023/03/30 01:06:28;;;;;;;2.17;1.50;;;;;;;5.54;58.80;63509.31;5032761;28;20192;-53
2023/03/30 01:08:56;;;;;;;1.90;1.40;;;;;;;5.49;59.06;63501.38;5032556;28;20576;-54
2023/03/30 01:11:23;;;;;;;2.03;1.00;;;;;;;5.46;58.88;63500.63;5032494;28;20248;-53
2023/03/30 01:13:53;;;;;;;3.87;1.80;;;;;;;5.44;59.24;63495.94;5032623;28;20206;-52
2023/03/30 01:16:34;;;;;;;1.67;1.20;;;;;;;5.40;59.63;63492.13;5032423;28;20671;-52
2023/03/30 01:19:15;;;;;;;1.83;1.10;;;;;;;5.40;59.87;63494.09;5032555;28;20217;-54
2023/03/30 01:21:59;;;;;;;3.57;1.30;;;;;;;5.44;59.82;63498.44;5032639;28;20256;-54
2023/03/30 01:24:37;;;;;;;1.70;1.33;;;;;;;5.44;59.69;63498.44;5032592;28;20237;-58
2023/03/30 01:27:31;;;;;;;3.43;1.73;;;;;;;5.51;59.55;63503.56;5032398;28;20224;-53
2023/03/30 01:30:25;;;;;;;1.23;1.00;;;;;;;5.36;59.80;63487.78;5032104;28;20225;-52
2023/03/30 01:33:17;;;;;;;1.73;1.43;;;;;;;5.44;59.66;63493.44;5032347;28;20198;-57
2023/03/30 01:36:07;;;;;;;1.67;1.50;;;;;;;5.51;59.78;63504.13;5032372;28;20754;-52
2023/03/30 01:39:12;;;;;;;1.97;1.30;;;;;;;5.54;59.15;63506.81;5032019;28;20305;-54
2023/03/30 01:41:43;;;;;;;1.37;1.20;;;;;;;5.48;58.30;63502.78;5009213;28;20240;-57
2023/03/30 01:44:16;;;;;;;1.40;1.30;;;;;;;5.55;58.10;63507.94;5032117;28;20246;-55
2023/03/30 01:47:06;;;;;;;2.87;1.50;;;;;;;5.54;58.55;63511.81;5032010;28;20243;-57
2023/03/30 01:49:37;;;;;;;4.43;1.30;;;;;;;5.51;58.04;63506.63;5032094;28;20213;-56
2023/03/30 01:52:20;;;;;;;2.83;1.70;;;;;;;5.53;57.32;63505.75;5032038;28;20285;-52
2023/03/30 01:55:14;;;;;;;5.50;1.97;;;;;;;5.49;57.62;63501.94;5032082;28;20213;-53
2023/03/30 01:57:54;;;;;;;2.07;1.50;;;;;;;5.44;57.84;63498.44;5029713;28;20738;-54
2023/03/30 02:00:22;;;;;;;2.53;1.30;;;;;;;5.40;57.97;63492.13;5031663;28;20206;-52
2023/03/30 02:02:57;;;;;;;1.90;1.47;;;;;;;5.40;58.49;63494.09;5031892;28;20206;-58
2023/03/30 02:05:26;;;;;;;2.73;1.43;;;;;;;5.40;58.42;63494.09;5031597;28;20236;-57
2023/03/30 02:08:14;;;;;;;2.57;1.50;;;;;;;5.36;59.53;63487.78;5031546;28;20236;-58
2023/03/30 02:10:42;;;;;;;2.53;1.50;;;;;;;5.28;60.34;63481.03;5031598;28;20743;-53
2023/03/30 02:13:09;;;;;;;3.03;1.50;;;;;;;5.28;60.72;63481.56;5013592;28;20198;-54
2023/03/30 02:15:39;;;;;;;2.10;1.70;;;;;;;5.31;60.19;63482.34;5031407;28;20217;-53
2023/03/30 02:18:05;;;;;;;3.37;1.73;;;;;;;5.32;60.28;63480.38;5031718;28;20195;-52
2023/03/30 02:20:32;;;;;;;4.50;1.60;;;;;;;5.30;60.49;63481.25;5013796;28;20228;-53
2023/03/30 02:22:58;;;;;;;1.87;1.20;;;;;;;5.24;61.21;63479.72;5031480;28;20201;-51
2023/03/30 02:25:24;;;;;;;5.37;1.40;;;;;;;5.31;61.11;63481.78;5031580;28;20225;-58
2023/03/30 02:27:56;;;;;;;2.20;1.50;;;;;;;5.28;61.55;63479.06;5031435;28;20282;-54
2023/03/30 02:30:21;;;;;;;3.30;1.53;;;;;;;5.29;61.95;63482.66;5031724;28;20298;-55
2023/03/30 02:32:52;;;;;;;6.97;1.77;;;;;;;5.30;62.05;63478.19;5031369;28;20607;-53
2023/03/30 02:35:23;;;;;;;1.60;1.23;;;;;;;5.21;62.54;63473.41;5031537;28;20288;-54
2023/03/30 02:38:07;;;;;;;3.73;1.80;;;;;;;5.22;63.50;63472.00;5013944;28;20205;-53
2023/03/30 02:40:56;;;;;;;3.03;1.57;;;;;;;5.23;63.33;63473.09;5031399;28;20217;-53
2023/03/30 02:43:32;;;;;;;1.20;1.10;;;;;;;5.01;64.18;63450.22;5003269;28;20232;-54
2023/03/30 02:46:36;;;;;;;3.10;1.50;;;;;;;5.15;64.22;63467.44;5031021;28;20682;-53
2023/03/30 02:49:19;;;;;;;3.03;1.73;;;;;;;5.14;64.90;63463.84;5030511;28;20237;-56
2023/03/30 02:51:50;;;;;;;2.93;1.50;;;;;;;5.03;66.79;63454.34;5031273;28;20294;-57
2023/03/30 02:54:18;;;;;;;2.07;1.50;;;;;;;5.05;67.34;63456.53;5031237;28;20206;-58
2023/03/30 02:56:54;;;;;;;3.87;1.63;;;;;;;5.10;68.15;63460.03;5031250;28;20278;-53
2023/03/30 02:59:29;;;;;;;2.33;2.00;;;;;;;5.11;68.93;63463.59;5031112;28;20212;-57
2023/03/30 03:02:06;;;;;;;3.60;1.50;;;;;;;5.10;69.64;63460.03;5030863;28;20212;-57
2023/03/30 03:04:33;;;;;;;5.60;1.43;;;;;;;4.94;70.73;63445.13;5031123;28;20198;-54
2023/03/30 03:07:01;;;;;;;3.53;1.70;;;;;;;5.03;71.19;63454.91;5031036;28;20217;-55
2023/03/30 03:09:28;;;;;;;2.10;1.53;;;;;;;4.97;71.86;63447.81;5030494;28;20227;-55
2023/03/30 03:11:54;;;;;;;4.27;1.60;;;;;;;5.01;72.05;63452.72;5030563;28;20202;-57
2023/03/30 03:14:20;;;;;;;2.23;1.70;;;;;;;5.01;72.33;63450.22;5030668;28;20224;-56
2023/03/30 03:16:46;;;;;;;3.27;2.00;;;;;;;4.92;73.15;63437.94;5030465;28;20200;-56
2023/03/30 03:19:11;;;;;;;4.00;2.13;;;;;;;4.89;74.12;63437.16;5030649;28;20206;-59
2023/03/30 03:21:37;;;;;;;3.13;1.70;;;;;;;4.79;74.08;63428.78;5030439;28;20267;-58
2023/03/30 03:24:03;;;;;;;2.30;1.93;;;;;;;4.88;75.08;63438.03;5030672;28;20292;-56
2023/03/30 03:26:29;;;;;;;2.80;1.77;;;;;;;4.80;75.21;63432.38;5033377;28;20710;-56
2023/03/30 03:28:54;;;;;;;2.60;1.90;;;;;;;4.75;76.19;63424.44;5033988;28;20212;-56
2023/03/30 03:31:20;;;;;;;3.60;2.00;;;;;;;4.75;76.68;63424.44;5033998;28;20664;-56
2023/03/30 03:33:46;;;;;;;3.47;2.10;;;;;;;4.81;76.71;63430.97;5015994;28;20196;-56
2023/03/30 03:36:12;;;;;;;3.90;1.70;;;;;;;4.70;77.52;63418.44;5033842;28;20308;-57
2023/03/30 03:38:37;;;;;;;3.07;1.97;;;;;;;4.73;77.59;63422.25;5016139;28;20261;-54
2023/03/30 03:41:03;;;;;;;2.00;1.63;;;;;;;4.73;78.20;63419.75;5033838;28;20590;-53
2023/03/30 03:43:29;;;;;;;3.70;1.77;;;;;;;4.74;78.88;63420.31;5033860;28;20203;-53
2023/03/30 03:45:55;;;;;;;3.57;2.00;;;;;;;4.73;79.50;63422.25;5033615;28;20214;-53
2023/03/30 03:48:23;;;;;;;6.27;1.77;;;;;;;4.85;81.97;63435.31;5033685;28;20335;-54
2023/03/30 03:50:51;;;;;;;2.80;2.23;;;;;;;4.78;79.65;63430.19;5033553;28;20222;-53
2023/03/30 03:53:16;;;;;;;3.27;2.00;;;;;;;4.75;80.49;63424.44;5033749;28;20288;-54
2023/03/30 03:55:43;;;;;;;4.17;2.20;;;;;;;4.74;80.91;63423.34;5033494;28;20675;-53
2023/03/30 03:58:09;;;;;;;2.43;2.10;;;;;;;4.71;81.73;63420.06;5033525;28;20671;-53
2023/03/30 04:00:34;;;;;;;3.30;1.90;;;;;;;4.66;81.83;63414.09;5033756;28;20351;-54
2023/03/30 04:03:00;;;;;;;2.77;1.90;;;;;;;4.58;82.76;63405.94;5031702;28;20209;-53
2023/03/30 04:05:25;;;;;;;2.83;2.10;;;;;;;4.61;83.20;63411.69;5031763;28;20623;-54
2023/03/30 04:07:52;;;;;;;2.70;1.97;;;;;;;4.51;83.72;63397.78;5033135;28;20220;-52
2023/03/30 04:10:19;;;;;;;3.63;1.87;;;;;;;4.79;83.43;63428.78;5032234;28;20224;-54
2023/03/30 04:12:45;;;;;;;3.13;2.17;;;;;;;4.65;83.58;63413.00;5033487;28;20206;-54
2023/03/30 04:15:11;;;;;;;5.10;2.40;;;;;;;4.71;83.60;63419.53;5033464;28;20228;-55
2023/03/30 04:17:36;;;;;;;5.10;2.67;;;;;;;4.51;83.98;63398.31;5033247;28;20284;-54
2023/03/30 04:20:03;;;;;;;2.90;2.17;;;;;;;4.56;84.46;63403.78;5033090;28;20217;-55
2023/03/30 04:22:32;;;;;;;3.07;2.37;;;;;;;4.46;85.41;63389.84;5015183;28;20206;-53
2023/03/30 04:24:58;;;;;;;3.77;2.27;;;;;;;4.47;85.73;63393.97;5033056;28;20673;-54
2023/03/30 04:27:24;;;;;;;3.83;2.67;;;;;;;4.56;86.22;63401.28;5032448;28;20228;-54
2023/03/30 04:29:51;;;;;;;2.90;2.40;;;;;;;4.49;85.70;63395.59;5032408;28;20232;-55
2023/03/30 04:32:19;;;;;;;3.43;2.10;;;;;;;4.62;85.65;63407.81;5032957;28;20351;-54
2023/03/30 04:34:46;;;;;;;3.97;3.20;;;;;;;4.56;85.67;63401.28;5033194;28;20267;-55
2023/03/30 04:37:17;;;;;;;5.27;2.60;;;;;;;4.60;85.19;63408.13;5032705;28;20207;-53
2023/03/30 04:39:45;;;;;;;6.47;3.33;;;;;;;4.72;84.78;63421.19;5032992;28;20216;-53
2023/03/30 04:42:18;;;;;;;5.27;2.53;;;;;;;4.74;84.97;63423.34;5032766;28;20205;-54
2023/03/30 04:44:44;;;;;;;5.23;2.63;;;;;;;4.70;84.72;63416.50;5032977;28;20206;-57
2023/03/30 04:47:10;;;;;;;5.60;2.70;;;;;;;4.70;84.24;63415.97;5032624;28;20278;-54
2023/03/30 04:52:26;;;;;;;3.67;2.50;;;;;;;4.68;84.03;63414.31;5032615;28;20225;-54
2023/03/30 04:54:51;;;;;;;8.33;3.60;;;;;;;4.78;83.26;63427.69;5032349;28;20269;-54
2023/03/30 04:57:17;;;;;;;6.60;3.30;;;;;;;4.83;83.11;63433.13;5032560;28;20197;-56
2023/03/30 04:59:43;;;;;;;3.20;2.07;;;;;;;4.87;82.35;63434.44;5032555;28;20730;-54
2023/03/30 05:02:10;;;;;;;8.07;3.47;;;;;;;5.68;100.00;63524.56;5032477;28;20200;-54
2023/03/30 05:04:36;;;;;;;6.63;2.50;;;;;;;6.54;100.00;63618.31;5034273;22;20230;-53
2023/03/30 05:07:03;;;;;;;2.57;2.13;;;;;;;6.29;84.19;63591.06;5012616;28;20696;-54
2023/03/30 05:09:28;;;;;;;5.63;2.87;;;;;;;6.06;81.35;63563.47;5012716;28;20206;-54
2023/03/30 05:11:54;;;;;;;7.93;2.70;;;;;;;6.05;80.13;63562.41;5012775;28;20569;-53
2023/03/30 05:14:19;;;;;;;4.93;3.10;;;;;;;5.91;80.00;63547.69;5012808;28;20211;-54
2023/03/30 05:16:46;;;;;;;5.23;3.13;;;;;;;5.75;81.14;63532.19;5011292;28;20206;-54
2023/03/30 05:19:11;;;;;;;7.40;2.60;;;;;;;5.86;79.55;63544.19;5012597;28;20211;-56
2023/03/30 05:21:36;;;;;;;3.97;3.07;;;;;;;5.81;81.08;63538.75;5012543;28;20213;-54
2023/03/30 05:24:02;;;;;;;4.80;3.10;;;;;;;5.84;80.50;63542.00;5012473;28;20577;-54
2023/03/30 05:26:27;;;;;;;3.13;2.40;;;;;;;5.91;79.06;63547.16;5012492;28;20567;-53
2023/03/30 05:28:53;;;;;;;4.73;2.57;;;;;;;5.88;78.20;63544.41;5012366;28;20246;-54
2023/03/30 05:31:19;;;;;;;8.80;2.57;;;;;;;5.86;78.85;63546.69;4994678;28;20672;-54
2023/03/30 05:33:45;;;;;;;9.13;2.97;;;;;;;5.89;78.15;63545.53;5012117;28;20199;-54
2023/03/30 05:36:11;;;;;;;6.10;2.67;;;;;;;5.92;79.70;63551.28;5012128;28;20209;-54
2023/03/30 05:38:37;;;;;;;10.73;2.93;;;;;;;6.00;79.67;63556.41;5012212;28;20746;-53
2023/03/30 05:41:06;;;;;;;5.30;2.43;;;;;;;6.04;79.29;63561.31;5012149;28;20206;-53
2023/03/30 05:43:32;;;;;;;4.53;2.97;;;;;;;5.97;79.45;63556.19;5012109;28;20199;-53
2023/03/30 05:45:58;;;;;;;3.57;2.87;;;;;;;5.98;80.29;63557.25;5012122;28;20237;-53
2023/03/30 05:48:23;;;;;;;5.60;2.67;;;;;;;6.05;79.22;63564.91;5011385;28;20754;-57
2023/03/30 05:50:49;;;;;;;7.23;3.40;;;;;;;6.02;79.93;63564.13;5012968;28;20294;-56
2023/03/30 05:53:15;;;;;;;7.97;3.30;;;;;;;6.11;79.96;63571.44;4994896;28;20195;-55
2023/03/30 05:55:45;;;;;;;10.03;3.97;;;;;;;6.23;86.43;63581.47;5012214;28;20221;-57
2023/03/30 05:58:12;;;;;;;4.57;3.00;;;;;;;6.30;81.33;63589.09;5011924;28;20289;-58
2023/03/30 06:00:40;;;;;;;6.00;3.80;;;;;;;6.29;81.11;63591.06;5012016;28;20210;-59
2023/03/30 06:03:07;;;;;;;7.63;3.77;;;;;;;6.20;82.59;63581.22;5012499;28;20218;-52
2023/03/30 06:05:42;;;;;;;7.23;4.40;;;;;;;6.25;82.96;63583.66;5012133;28;20277;-53
2023/03/30 06:08:09;;;;;;;10.50;5.30;;;;;;;6.15;84.71;63575.78;5012028;28;20217;-57
2023/03/30 06:10:35;;;;;;;8.77;4.73;;;;;;;6.24;83.65;63585.06;5011716;28;20297;-58
2023/03/30 06:13:01;;;;;;;10.63;5.53;;;;;;;6.30;83.56;63589.63;5011744;28;20273;-57
2023/03/30 06:15:27;;;;;;;7.87;4.70;;;;;;;6.35;85.17;63597.59;5011870;28;20295;-54
2023/03/30 06:17:53;;;;;;;9.57;4.70;;;;;;;6.34;85.09;63595.97;5011579;28;20206;-54
2023/03/30 06:20:20;;;;;;;7.00;4.60;;;;;;;6.30;86.50;63589.63;5011482;28;20218;-54
2023/03/30 06:22:48;;;;;;;6.23;4.10;;;;;;;6.32;84.51;63594.31;5011547;28;20209;-53
2023/03/30 06:25:14;;;;;;;8.60;5.70;;;;;;;6.33;84.16;63594.84;5011677;28;20306;-54
2023/03/30 06:27:40;;;;;;;7.87;4.53;;;;;;;6.36;85.05;63595.63;5011420;28;20301;-55
2023/03/30 06:30:10;;;;;;;10.97;5.13;;;;;;;6.30;84.70;63589.63;4993956;28;20234;-56
2023/03/30 06:32:36;;;;;;;7.73;4.87;;;;;;;6.25;83.65;63584.19;4994005;28;20206;-58
2023/03/30 06:35:02;;;;;;;6.13;3.70;;;;;;;6.29;82.60;63590.50;5011365;28;20218;-55
2023/03/30 06:37:33;;;;;;;10.20;5.30;;;;;;;6.20;83.06;63581.22;4994272;28;20709;-55
2023/03/30 06:39:58;;;;;;;12.80;4.90;;;;;;;6.21;83.62;63576.78;5011822;28;20210;-58
2023/03/30 06:42:26;;;;;;;7.10;4.97;;;;;;;6.40;82.19;63602.50;5011428;28;20210;-60
2023/03/30 06:44:52;;;;;;;9.37;4.50;;;;;;;6.49;82.26;63612.84;5011420;28;20269;-57
2023/03/30 06:47:18;;;;;;;9.63;5.03;;;;;;;6.56;81.42;63618.00;5011158;28;20686;-58
2023/03/30 06:49:44;;;;;;;10.33;5.37;;;;;;;6.56;82.61;63618.00;5011372;28;20222;-57
2023/03/30 06:52:11;;;;;;;13.77;5.33;;;;;;;6.69;80.97;63634.09;5011388;28;20198;-57
2023/03/30 06:54:37;;;;;;;16.53;5.00;;;;;;;6.84;79.54;63644.91;5011094;28;20218;-55
2023/03/30 06:57:03;;;;;;;10.33;4.37;;;;;;;6.86;79.85;63650.16;5011033;28;20220;-53
2023/03/30 06:59:28;;;;;;;9.70;5.07;;;;;;;6.96;77.90;63660.50;5011497;28;20294;-53
2023/03/30 07:01:54;;;;;;;8.77;4.43;;;;;;;7.00;77.90;63670.41;5011227;28;20700;-57
2023/03/30 07:04:20;;;;;;;9.70;5.07;;;;;;;7.01;78.48;63668.47;5010883;28;20206;-54
2023/03/30 07:06:46;;;;;;;8.63;4.73;;;;;;;7.13;78.18;63681.56;5011052;28;20214;-57
2023/03/30 07:09:11;;;;;;;9.20;5.97;;;;;;;6.94;77.18;63658.88;5011627;28;20223;-54
2023/03/30 07:11:37;;;;;;;11.13;5.70;;;;;;;6.81;77.04;63646.66;5011179;28;20203;-57
2023/03/30 07:14:04;;;;;;;9.97;4.90;;;;;;;7.16;77.11;63684.81;5009607;28;20218;-53
2023/03/30 07:16:29;;;;;;;10.67;5.07;;;;;;;7.45;75.85;63716.47;5011051;28;20207;-53
2023/03/30 07:18:55;;;;;;;12.27;4.90;;;;;;;7.65;74.53;63735.78;5010823;28;20218;-54
2023/03/30 07:21:20;;;;;;;10.43;5.27;;;;;;;7.69;74.90;63740.13;5011029;28;20212;-57
2023/03/30 07:23:46;;;;;;;10.27;4.40;;;;;;;7.91;74.70;63764.16;5010904;28;20218;-53
2023/03/30 07:26:11;;;;;;;8.13;4.93;;;;;;;8.11;73.33;63787.94;5010859;28;20638;-57
2023/03/30 07:28:39;;;;;;;10.27;5.97;;;;;;;8.30;72.20;63806.75;4993087;28;20214;-58
2023/03/30 07:31:07;;;;;;;8.70;5.30;;;;;;;8.33;72.06;63809.47;5010920;28;20575;-60
2023/03/30 07:33:32;;;;;;;10.23;5.60;;;;;;;8.32;71.43;63811.44;5010984;28;20187;-58
2023/03/30 07:35:58;;;;;;;8.00;5.30;;;;;;;8.33;70.56;63810.03;5010901;28;20298;-59
2023/03/30 07:38:23;;;;;;;8.67;5.03;;;;;;;8.19;70.71;63794.72;5010858;28;20278;-58
2023/03/30 07:40:49;;;;;;;7.50;4.83;;;;;;;8.46;70.01;63826.72;5011209;28;20211;-55
2023/03/30 07:43:14;;;;;;;11.07;5.87;;;;;;;8.61;70.49;63837.00;5010776;28;20194;-56
2023/03/30 07:45:40;;;;;;;9.23;5.67;;;;;;;8.87;69.77;63870.97;5010730;28;20217;-59
2023/03/30 07:48:05;;;;;;;9.47;5.30;;;;;;;8.62;68.07;63838.09;5010881;28;20264;-58
2023/03/30 07:50:31;;;;;;;10.37;5.17;;;;;;;8.74;67.34;63856.78;5010567;28;20211;-59
2023/03/30 07:52:56;;;;;;;10.77;5.57;;;;;;;8.43;68.64;63820.41;4992933;28;20697;-57
2023/03/30 07:55:22;;;;;;;9.47;5.00;;;;;;;8.56;68.36;63837.13;5010284;28;20728;-58
2023/03/30 07:57:48;;;;;;;9.43;5.27;;;;;;;8.81;68.69;63861.91;5010706;28;20337;-59
2023/03/30 08:00:14;;;;;;;9.07;5.40;;;;;;;8.63;68.92;63841.69;5011136;28;20289;-53
2023/03/30 08:02:41;;;;;;;7.93;5.10;;;;;;;8.97;67.50;63876.31;5010622;28;20283;-53
2023/03/30 08:05:07;;;;;;;9.87;4.97;;;;;;;9.42;65.41;63928.03;5010621;28;20210;-53
2023/03/30 08:07:34;;;;;;;10.50;5.20;;;;;;;9.70;64.08;63958.09;5010562;28;20214;-52
2023/03/30 08:09:59;;;;;;;9.83;5.17;;;;;;;9.80;63.84;63966.50;5010668;28;20233;-54
2023/03/30 08:12:25;;;;;;;7.63;4.87;;;;;;;9.71;65.63;63959.75;5013246;28;20688;-54
2023/03/30 08:14:50;;;;;;;9.47;4.87;;;;;;;9.91;63.48;63984.13;5013647;28;20289;-58
2023/03/30 08:17:18;;;;;;;9.43;5.27;;;;;;;9.79;61.84;63968.50;5013741;28;20206;-56
2023/03/30 08:19:43;;;;;;;8.20;4.80;;;;;;;9.76;62.54;63962.13;5013573;28;20215;-57
2023/03/30 08:22:09;;;;;;;7.97;4.77;;;;;;;10.18;61.84;64007.56;5014018;28;20217;-58
2023/03/30 08:24:34;;;;;;;7.70;4.37;;;;;;;10.32;60.07;64031.00;5013540;28;20253;-56
2023/03/30 08:27:00;;;;;;;9.57;4.97;;;;;;;10.12;61.09;64004.59;5013642;28;20206;-59
2023/03/30 08:29:25;;;;;;;8.80;5.23;;;;;;;10.36;60.49;64032.84;5013473;28;20728;-58
2023/03/30 08:31:51;;;;;;;11.80;5.30;;;;;;;10.53;60.18;64045.84;5013614;28;20206;-58
2023/03/30 08:34:17;;;;;;;8.80;5.30;;;;;;;10.83;60.93;64083.72;5013314;28;20214;-58
2023/03/30 08:36:42;;;;;;;10.00;6.00;;;;;;;10.90;60.85;64086.38;5013467;28;20199;-58
2023/03/30 08:39:07;;;;;;;11.20;6.30;;;;;;;10.99;59.50;64101.25;5013796;28;20329;-57
2023/03/30 08:41:45;;;;;;;9.53;5.50;;;;;;;10.91;59.50;64092.50;5013305;28;20268;-56
2023/03/30 08:44:16;;;;;;;12.63;6.77;;;;;;;11.53;58.81;64157.34;5013472;28;20586;-56
2023/03/30 08:46:43;;;;;;;13.33;7.33;;;;;;;11.82;56.96;64191.13;5013264;28;20209;-53
2023/03/30 08:49:15;;;;;;;10.17;5.93;;;;;;;11.98;55.11;64206.66;5013197;28;20211;-59
2023/03/30 08:51:41;;;;;;;12.17;6.23;;;;;;;12.29;54.60;64238.13;5013101;28;20171;-57
2023/03/30 08:54:14;;;;;;;9.97;5.93;;;;;;;12.21;53.61;64229.38;5013221;28;20690;-61
2023/03/30 08:57:17;;;;;;;10.43;5.83;;;;;;;12.49;53.69;64260.06;5013242;28;20202;-59
2023/03/30 08:59:55;;;;;;;7.03;5.03;;;;;;;12.78;53.80;64291.31;5013087;28;20214;-58
2023/03/30 09:02:20;;;;;;;8.73;5.17;;;;;;;13.19;51.48;64336.31;5013131;28;20273;-63
2023/03/30 09:05:07;;;;;;;10.87;5.40;;;;;;;12.68;52.11;64280.88;5013267;28;20223;-54
2023/03/30 09:07:40;;;;;;;9.20;4.83;;;;;;;12.49;52.28;64259.50;5012716;28;20205;-53
2023/03/30 09:10:15;;;;;;;6.23;3.80;;;;;;;12.94;49.28;64308.88;5012873;28;20261;-54
2023/03/30 09:12:54;;;;;;;6.67;3.37;;;;;;;13.58;47.45;64380.56;5012690;28;20281;-54
2023/03/30 09:15:25;;;;;;;3.23;2.67;;;;;;;13.95;45.71;64419.22;5012855;28;20219;-56
2023/03/30 09:18:35;;;;;;;6.17;2.80;;;;;;;14.16;44.87;64444.81;5013061;28;20199;-58
2023/03/30 09:21:04;;;;;;;6.30;3.37;;;;;;;13.47;45.89;64369.56;5007719;28;20195;-57
2023/03/30 09:23:31;;;;;;;5.55;3.58;;;;;;;13.45;46.29;64367.38;5011738;28;20206;-53
2023/03/30 09:26:34;;;;;;;8.03;3.30;;;;;;;13.06;46.68;64324.03;5013073;28;20210;-54
2023/03/30 09:29:09;;;;;;;4.80;3.17;;;;;;;12.85;46.42;64298.44;4995600;28;20237;-54
2023/03/30 09:31:46;;;;;;;4.73;3.47;;;;;;;12.59;47.33;64268.50;5012730;28;20194;-54
2023/03/30 09:34:47;;;;;;;7.83;3.50;;;;;;;12.90;47.11;64304.50;5012811;28;20202;-55
2023/03/30 09:37:17;;;;;;;10.40;4.50;;;;;;;13.46;46.81;64368.50;4969087;28;20252;-58
2023/03/30 09:39:47;;;;;;;7.97;3.83;;;;;;;13.68;45.70;64389.00;5012403;28;20207;-57
2023/03/30 09:42:21;;;;;;;6.10;3.73;;;;;;;13.39;45.46;64358.28;5012452;28;20198;-54
2023/03/30 09:45:26;;;;;;;4.57;3.37;;;;;;;12.52;46.21;64262.81;5012650;28;20210;-54
2023/03/30 09:47:52;;;;;;;5.47;3.17;;;;;;;12.52;47.04;64262.81;4994801;28;20327;-54
2023/03/30 09:50:27;;;;;;;5.43;2.93;;;;;;;12.55;46.46;64266.09;5032729;22;20647;-54
2023/03/30 09:52:57;;;;;;;4.40;2.60;;;;;;;12.67;46.23;64281.78;5032055;28;20185;-59
2023/03/30 09:55:31;;;;;;;4.97;3.43;;;;;;;12.92;45.76;64308.66;5031679;28;20206;-58
2023/03/30 09:58:17;;;;;;;6.57;2.90;;;;;;;12.71;45.96;64288.13;5032018;28;20232;-54
2023/03/30 10:00:43;;;;;;;5.70;2.60;;;;;;;12.79;44.54;64291.84;5032075;28;20226;-56
2023/03/30 10:03:19;;;;;;;2.07;1.60;;;;;;;11.93;45.03;64200.63;5013960;28;20182;-58
2023/03/30 10:06:03;;;;;;;5.10;1.50;;;;;;;11.64;45.79;64166.88;5031815;28;20258;-56
2023/03/30 10:08:29;;;;;;;9.57;2.63;;;;;;;11.57;46.27;64161.72;5031518;28;20216;-57
2023/03/30 10:10:57;;;;;;;2.27;1.33;;;;;;;12.21;45.18;64229.38;5031592;28;20221;-58
2023/03/30 10:13:36;;;;;;;5.83;2.27;;;;;;;12.32;45.36;64245.94;5032133;28;20198;-53
2023/03/30 10:16:26;;;;;;;4.37;1.90;;;;;;;12.09;45.63;64218.19;5031847;28;20190;-54
2023/03/30 10:18:54;;;;;;;4.27;2.37;;;;;;;12.14;45.55;64224.22;5023857;28;20675;-54
2023/03/30 10:21:25;;;;;;;3.27;1.70;;;;;;;12.17;45.12;64226.94;5031599;28;20237;-54
2023/03/30 10:24:17;;;;;;;2.17;1.83;;;;;;;12.67;43.92;64281.78;5031715;28;20198;-56
2023/03/30 10:26:46;;;;;;;5.57;2.03;;;;;;;12.85;44.05;64301.53;5031483;28;20206;-53
2023/03/30 10:29:15;;;;;;;3.57;1.93;;;;;;;13.39;44.26;64358.28;5031222;28;20216;-54
2023/03/30 10:31:51;;;;;;;2.20;2.00;;;;;;;14.55;41.82;64487.13;5031311;28;20660;-61
2023/03/30 10:34:22;;;;;;;2.10;1.90;;;;;;;14.77;40.88;64508.78;5031074;28;20209;-57
2023/03/30 10:36:52;;;;;;;3.23;1.60;;;;;;;13.59;41.66;64382.22;5031429;28;20586;-58
2023/03/30 10:39:24;;;;;;;2.70;1.50;;;;;;;13.98;41.42;64424.47;5031118;28;20214;-59
2023/03/30 10:41:51;;;;;;;4.03;1.73;;;;;;;14.25;40.79;64454.69;5031116;28;20197;-59
2023/03/30 10:44:31;;;;;;;4.50;1.42;;;;;;;14.45;40.52;64473.59;5031315;28;20222;-58
2023/03/30 10:47:35;;;;;;;2.95;1.98;;;;;;;13.91;40.87;64419.34;5031303;28;20213;-54
2023/03/30 10:50:23;;;;;;;3.45;2.33;;;;;;;14.35;41.83;64462.06;5036582;22;20777;-54
2023/03/30 10:52:54;;;;;;;2.97;2.08;;;;;;;14.48;41.85;64478.91;5031025;28;20202;-55
2023/03/30 10:55:44;;;;;;;3.08;1.90;;;;;;;14.82;41.87;64513.72;5031033;28;20220;-55
2023/03/30 10:58:18;;;;;;;2.07;1.70;;;;;;;15.06;41.14;64540.66;5000329;28;20202;-57
2023/03/30 11:01:11;;;;;;;3.33;2.05;;;;;;;14.91;40.50;64526.13;5031313;28;20305;-52
2023/03/30 11:03:41;;;;;;;2.30;1.40;;;;;;;14.43;40.74;64476.47;5030917;28;20194;-58
2023/03/30 11:06:17;;;;;;;1.85;1.38;;;;;;;13.32;42.47;64350.59;5030743;28;20248;-59
2023/03/30 11:08:46;;;;;;;1.90;1.58;;;;;;;13.65;42.92;64385.72;5030885;28;20218;-56
2023/03/30 11:11:19;;;;;;;3.90;1.98;;;;;;;13.19;42.46;64336.31;5030678;28;20244;-56
2023/03/30 11:13:50;;;;;;;3.35;2.10;;;;;;;13.11;42.45;64327.53;5030617;28;20206;-57
2023/03/30 11:16:24;;;;;;;5.23;2.20;;;;;;;13.48;42.19;64367.59;5030657;28;20378;-58
2023/03/30 11:18:52;;;;;;;2.93;1.83;;;;;;;13.63;41.00;64386.06;5030810;28;20193;-57
2023/03/30 11:21:35;;;;;;;2.25;1.85;;;;;;;14.03;41.28;64428.00;5030623;28;20674;-58
2023/03/30 11:24:11;;;;;;;3.77;2.07;;;;;;;14.61;40.92;64493.16;5030721;28;20236;-57
2023/03/30 11:26:43;;;;;;;5.50;1.67;;;;;;;14.61;40.68;64490.63;5012817;28;20675;-57
2023/03/30 11:29:40;;;;;;;2.17;1.43;;;;;;;15.10;40.08;64547.59;5030509;28;20234;-59
2023/03/30 11:32:27;;;;;;;2.72;1.65;;;;;;;15.50;39.35;64587.94;5030585;28;20193;-58
2023/03/30 11:35:17;;;;;;;4.45;2.00;;;;;;;15.58;38.73;64599.28;5031052;28;20264;-56
2023/03/30 11:38:00;;;;;;;4.15;1.80;;;;;;;16.91;37.97;64745.16;5012805;28;20178;-54
2023/03/30 11:40:31;;;;;;;3.10;1.52;;;;;;;16.50;37.28;64698.00;5012639;28;20225;-56
2023/03/30 11:42:56;;;;;;;3.25;1.67;;;;;;;16.99;36.64;64753.97;5029311;28;20225;-54
2023/03/30 11:45:50;;;;;;;6.57;1.98;;;;;;;16.29;37.63;64674.31;5030670;28;20226;-56
2023/03/30 11:48:41;;;;;;;4.80;2.40;;;;;;;15.31;37.84;64567.56;5033868;28;20210;-54
2023/03/30 11:51:10;;;;;;;7.65;3.78;;;;;;;14.57;38.80;64486.22;5033922;28;20225;-54
2023/03/30 11:53:44;;;;;;;4.72;1.88;;;;;;;14.75;38.82;64508.56;5033655;28;20185;-57
2023/03/30 11:56:18;;;;;;;5.35;3.35;;;;;;;15.28;39.04;64566.81;5033797;28;20197;-53
2023/03/30 11:58:55;;;;;;;3.28;1.60;;;;;;;16.14;38.69;64658.34;5033686;28;20693;-58
2023/03/30 12:01:42;;;;;;;2.60;1.35;;;;;;;16.91;36.87;64744.63;5033773;28;20192;-58